createdAt,value
2017-07-25T00:00:07.135Z,1.00
2017-07-25T00:02:40.286Z,1.03
2017-07-25T00:05:13.547Z,0.97
2017-07-25T00:07:45.754Z,1.10
2017-07-25T00:10:21.620Z,1.10
2017-07-25T00:12:54.380Z,0.80
2017-07-25T00:15:28.166Z,1.10
2017-07-25T00:18:00.772Z,0.90
2017-07-25T00:20:32.441Z,1.00
2017-07-25T00:23:04.745Z,0.90
2017-07-25T00:25:36.910Z,1.10
2017-07-25T00:28:09.251Z,1.20
2017-07-25T00:30:41.394Z,1.53
2017-07-25T00:33:13.565Z,1.23
2017-07-25T00:35:45.802Z,1.27
2017-07-25T00:38:17.057Z,1.10
2017-07-25T00:40:48.810Z,1.50
2017-07-25T00:43:24.657Z,1.30
2017-07-25T00:45:58.353Z,1.00
2017-07-25T00:48:29.637Z,1.30
2017-07-25T00:51:01.450Z,1.27
2017-07-25T00:53:33.023Z,1.40
2017-07-25T00:56:04.952Z,1.60
2017-07-25T00:58:36.539Z,1.20
2017-07-25T01:01:09.205Z,1.40
2017-07-25T01:03:41.032Z,1.43
2017-07-25T01:06:12.802Z,1.40
2017-07-25T01:08:45.044Z,1.50
2017-07-25T01:11:16.600Z,1.30
2017-07-25T01:13:48.415Z,1.40
2017-07-25T01:16:25.012Z,1.23
2017-07-25T01:18:57.236Z,1.30
2017-07-25T01:21:29.717Z,1.10
2017-07-25T01:24:01.791Z,1.30
2017-07-25T01:26:33.953Z,1.33
2017-07-25T01:29:06.231Z,1.10
2017-07-25T01:31:38.299Z,1.00
2017-07-25T01:34:10.141Z,1.00
2017-07-25T01:36:43.592Z,0.97
2017-07-25T01:39:15.914Z,0.87
2017-07-25T01:41:48.743Z,0.80
2017-07-25T01:44:34.050Z,0.80
2017-07-25T01:47:05.746Z,0.70
2017-07-25T01:49:37.481Z,1.00
2017-07-25T01:52:09.583Z,0.90
2017-07-25T01:54:43.651Z,1.00
2017-07-25T01:57:16.323Z,0.80
2017-07-25T01:59:47.585Z,1.30
2017-07-25T02:02:23.233Z,1.20
2017-07-25T02:04:55.546Z,1.20
2017-07-25T02:07:28.419Z,1.17
2017-07-25T02:10:00.562Z,1.20
2017-07-25T02:12:33.265Z,1.40
2017-07-25T02:15:04.802Z,1.30
2017-07-25T02:17:37.418Z,1.70
2017-07-25T02:20:09.932Z,1.57
2017-07-25T02:22:43.214Z,1.13
2017-07-25T02:25:15.962Z,1.80
2017-07-25T02:27:48.799Z,1.63
2017-07-25T02:30:25.492Z,1.40
2017-07-25T02:32:57.437Z,1.20
2017-07-25T02:35:28.798Z,1.77
2017-07-25T02:38:01.271Z,1.53
2017-07-25T02:40:32.546Z,1.70
2017-07-25T02:43:04.799Z,1.37
2017-07-25T02:45:37.935Z,1.63
2017-07-25T02:48:09.939Z,1.87
2017-07-25T02:50:42.420Z,2.00
2017-07-25T02:53:25.782Z,2.30
2017-07-25T02:56:06.947Z,1.80
2017-07-25T02:58:39.042Z,1.50
2017-07-25T03:01:11.428Z,1.67
2017-07-25T03:03:51.277Z,1.47
2017-07-25T03:06:29.339Z,1.40
2017-07-25T03:09:01.131Z,2.00
2017-07-25T03:11:33.284Z,2.10
2017-07-25T03:14:04.990Z,2.93
2017-07-25T03:16:37.043Z,2.90
2017-07-25T03:19:09.028Z,2.67
2017-07-25T03:21:40.377Z,2.43
2017-07-25T03:24:11.989Z,2.50
2017-07-25T03:26:44.022Z,2.70
2017-07-25T03:29:15.389Z,2.47
2017-07-25T03:31:47.845Z,3.50
2017-07-25T03:34:24.122Z,4.40
2017-07-25T03:36:56.142Z,3.40
2017-07-25T03:39:28.209Z,3.23
2017-07-25T03:42:00.650Z,3.17
2017-07-25T03:44:32.445Z,3.60
2017-07-25T03:47:05.180Z,3.53
2017-07-25T03:49:37.667Z,2.63
2017-07-25T03:52:10.005Z,3.63
2017-07-25T03:54:42.496Z,3.30
2017-07-25T03:57:14.662Z,3.67
2017-07-25T03:59:46.653Z,3.20
2017-07-25T04:02:22.339Z,3.60
2017-07-25T04:04:54.661Z,3.50
2017-07-25T04:07:27.728Z,3.20
2017-07-25T04:10:00.357Z,3.40
2017-07-25T04:12:32.155Z,3.10
2017-07-25T04:15:04.544Z,2.97
2017-07-25T04:17:36.826Z,2.90
2017-07-25T04:20:09.296Z,2.80
2017-07-25T04:22:40.945Z,2.97
2017-07-25T04:25:12.344Z,2.23
2017-07-25T04:27:44.714Z,2.93
2017-07-25T04:30:20.638Z,2.53
2017-07-25T04:32:52.694Z,2.20
2017-07-25T04:35:27.421Z,2.20
2017-07-25T04:37:58.882Z,2.07
2017-07-25T04:40:30.737Z,2.17
2017-07-25T04:43:02.694Z,2.10
2017-07-25T04:45:34.634Z,1.43
2017-07-25T04:48:06.124Z,1.50
2017-07-25T04:50:37.505Z,2.20
2017-07-25T04:53:09.010Z,1.90
2017-07-25T04:55:40.635Z,3.50
2017-07-25T04:58:12.867Z,2.00
2017-07-25T05:00:44.410Z,1.93
2017-07-25T05:03:16.173Z,2.87
2017-07-25T05:05:53.796Z,1.93
2017-07-25T05:08:29.319Z,2.00
2017-07-25T05:11:01.278Z,2.60
2017-07-25T05:13:33.817Z,2.50
2017-07-25T05:16:05.737Z,2.00
2017-07-25T05:18:44.679Z,1.80
2017-07-25T05:24:51.250Z,1.80
2017-07-25T05:27:32.215Z,1.83
2017-07-25T05:30:04.028Z,1.90
2017-07-25T05:32:35.654Z,1.83
2017-07-25T05:35:07.711Z,2.60
2017-07-25T05:37:39.485Z,2.00
2017-07-25T05:40:12.090Z,2.20
2017-07-25T05:42:45.334Z,1.90
2017-07-25T05:45:20.921Z,1.80
2017-07-25T05:47:53.026Z,2.00
2017-07-25T05:50:26.203Z,2.33
2017-07-25T05:52:57.906Z,2.10
2017-07-25T05:55:29.207Z,2.20
2017-07-25T05:58:03.227Z,2.43
2017-07-25T06:00:35.278Z,2.10
2017-07-25T06:03:08.535Z,1.93
2017-07-25T06:05:40.886Z,1.80
2017-07-25T06:08:12.893Z,1.80
2017-07-25T06:10:44.875Z,2.23
2017-07-25T06:13:16.840Z,2.00
2017-07-25T06:15:48.302Z,1.67
2017-07-25T06:18:25.878Z,1.40
2017-07-25T06:20:57.443Z,1.70
2017-07-25T06:23:29.340Z,1.60
2017-07-25T06:26:01.154Z,1.60
2017-07-25T06:28:33.237Z,1.60
2017-07-25T06:31:06.005Z,1.80
2017-07-25T06:33:37.881Z,1.40
2017-07-25T06:36:10.380Z,1.37
2017-07-25T06:38:42.571Z,1.30
2017-07-25T06:41:14.860Z,1.00
2017-07-25T06:43:46.999Z,0.97
2017-07-25T06:46:26.768Z,0.80
2017-07-25T06:48:59.130Z,0.93
2017-07-25T06:51:30.632Z,0.80
2017-07-25T06:54:02.459Z,1.43
2017-07-25T06:56:34.637Z,0.90
2017-07-25T06:59:06.369Z,0.90
2017-07-25T07:01:37.770Z,0.90
2017-07-25T07:04:09.052Z,0.80
2017-07-25T07:06:40.240Z,0.90
2017-07-25T07:09:12.243Z,0.97
2017-07-25T07:11:43.569Z,0.70
2017-07-25T07:14:15.990Z,0.90
2017-07-25T07:16:47.766Z,1.00
2017-07-25T07:19:23.438Z,1.30
2017-07-25T07:21:55.177Z,0.80
2017-07-25T07:24:26.912Z,0.90
2017-07-25T07:26:58.251Z,1.00
2017-07-25T07:29:48.494Z,1.00
2017-07-25T07:32:22.675Z,1.00
2017-07-25T07:34:55.527Z,0.90
2017-07-25T07:37:27.610Z,0.73
2017-07-25T07:40:00.672Z,0.70
2017-07-25T07:42:32.827Z,1.20
2017-07-25T07:45:04.088Z,0.97
2017-07-25T07:47:36.025Z,1.37
2017-07-25T07:50:07.900Z,1.20
2017-07-25T07:52:39.845Z,0.90
2017-07-25T07:55:11.344Z,0.90
2017-07-25T07:57:43.072Z,0.90
2017-07-25T08:00:15.018Z,0.90
2017-07-25T08:02:46.705Z,1.50
2017-07-25T08:05:20.239Z,1.20
2017-07-25T08:07:52.680Z,1.70
2017-07-25T08:10:25.858Z,2.03
2017-07-25T08:12:57.951Z,2.10
2017-07-25T08:15:29.819Z,1.50
2017-07-25T08:18:01.325Z,1.90
2017-07-25T08:20:32.955Z,1.50
2017-07-25T08:23:05.747Z,1.83
2017-07-25T08:25:38.236Z,1.70
2017-07-25T08:28:09.839Z,2.10
2017-07-25T08:30:41.326Z,1.80
2017-07-25T08:33:13.002Z,1.90
2017-07-25T08:35:45.058Z,1.40
2017-07-25T08:38:19.327Z,1.70
2017-07-25T08:40:51.359Z,2.10
2017-07-25T08:43:25.479Z,1.53
2017-07-25T08:45:57.038Z,1.80
2017-07-25T08:48:28.918Z,1.90
2017-07-25T08:51:00.866Z,1.83
2017-07-25T08:53:34.125Z,1.40
2017-07-25T08:56:06.724Z,1.80
2017-07-25T08:58:39.112Z,2.17
2017-07-25T09:01:11.761Z,1.60
2017-07-25T09:03:43.126Z,1.73
2017-07-25T09:06:14.541Z,2.33
2017-07-25T09:08:47.242Z,3.27
2017-07-25T09:11:20.969Z,2.70
2017-07-25T09:13:52.689Z,3.20
2017-07-25T09:16:25.323Z,2.70
2017-07-25T09:18:56.874Z,3.23
2017-07-25T09:21:28.224Z,3.47
2017-07-25T09:23:59.413Z,2.20
2017-07-25T09:26:31.140Z,2.37
2017-07-25T09:29:02.529Z,2.83
2017-07-25T09:31:33.967Z,2.20
2017-07-25T09:34:06.619Z,2.40
2017-07-25T09:36:38.575Z,1.80
2017-07-25T09:39:10.231Z,2.30
2017-07-25T09:41:42.142Z,2.43
2017-07-25T09:44:13.573Z,2.77
2017-07-25T09:46:45.173Z,2.27
2017-07-25T09:49:17.066Z,1.83
2017-07-25T09:51:48.622Z,2.67
2017-07-25T09:54:22.564Z,2.10
2017-07-25T09:56:55.069Z,1.80
2017-07-25T09:59:27.396Z,1.70
2017-07-25T10:01:58.776Z,1.80
2017-07-25T10:04:30.635Z,1.73
2017-07-25T10:07:02.190Z,1.97
2017-07-25T10:09:33.650Z,1.80
2017-07-25T10:12:05.399Z,1.80
2017-07-25T10:14:36.735Z,1.87
2017-07-25T10:17:08.033Z,1.87
2017-07-25T10:19:39.712Z,1.70
2017-07-25T10:22:12.268Z,1.83
2017-07-25T10:24:44.032Z,1.23
2017-07-25T10:27:15.991Z,1.13
2017-07-25T10:29:47.548Z,1.60
2017-07-25T10:32:21.740Z,1.40
2017-07-25T10:34:54.039Z,1.90
2017-07-25T10:37:27.673Z,1.73
2017-07-25T10:39:59.295Z,1.20
2017-07-25T10:42:30.766Z,1.93
2017-07-25T10:45:02.075Z,1.87
2017-07-25T10:47:33.569Z,1.77
2017-07-25T10:50:05.184Z,1.90
2017-07-25T10:52:36.503Z,1.50
2017-07-25T10:55:07.946Z,1.90
2017-07-25T10:57:39.362Z,2.03
2017-07-25T11:00:10.886Z,1.90
2017-07-25T11:02:43.133Z,1.80
2017-07-25T11:05:16.599Z,1.53
2017-07-25T11:07:49.036Z,2.40
2017-07-25T11:10:22.854Z,2.13
2017-07-25T11:12:54.596Z,2.00
2017-07-25T11:15:26.374Z,1.37
2017-07-25T11:17:57.704Z,1.30
2017-07-25T11:20:29.403Z,1.80
2017-07-25T11:23:00.728Z,1.70
2017-07-25T11:25:32.173Z,1.53
2017-07-25T11:28:03.888Z,1.20
2017-07-25T11:30:35.616Z,1.30
2017-07-25T11:33:07.284Z,0.90
2017-07-25T11:35:38.943Z,1.00
2017-07-25T11:38:10.192Z,1.27
2017-07-25T11:40:41.471Z,0.80
2017-07-25T11:43:12.878Z,0.87
2017-07-25T11:45:44.552Z,0.90
2017-07-25T11:48:16.046Z,0.90
2017-07-25T11:50:47.897Z,1.00
2017-07-25T11:53:22.068Z,0.93
2017-07-25T11:55:53.972Z,0.87
2017-07-25T11:58:26.137Z,0.90
2017-07-25T12:00:57.668Z,0.90
2017-07-25T12:03:28.977Z,0.90
2017-07-25T12:06:00.603Z,0.80
2017-07-25T12:08:32.253Z,0.80
2017-07-25T12:11:03.815Z,1.63
2017-07-25T12:13:35.135Z,0.80
2017-07-25T12:16:06.494Z,0.70
2017-07-25T12:18:38.137Z,0.90
2017-07-25T12:22:11.775Z,0.93
2017-07-25T12:24:43.642Z,0.70
2017-07-25T12:27:15.052Z,1.03
2017-07-25T12:29:48.631Z,1.10
2017-07-25T12:32:22.367Z,0.90
2017-07-25T12:34:53.625Z,1.13
2017-07-25T12:37:29.816Z,1.17
2017-07-25T12:40:01.552Z,1.23
2017-07-25T12:42:33.113Z,1.00
2017-07-25T12:45:05.228Z,0.90
2017-07-25T12:47:36.754Z,1.10
2017-07-25T12:50:08.308Z,1.10
2017-07-25T12:52:40.113Z,0.90
2017-07-25T12:55:11.914Z,0.80
2017-07-25T12:57:43.184Z,0.80
2017-07-25T13:00:15.493Z,0.80
2017-07-25T13:02:55.038Z,0.87
2017-07-25T13:05:27.079Z,0.83
2017-07-25T13:07:58.858Z,0.90
2017-07-25T13:10:30.331Z,1.10
2017-07-25T13:13:03.848Z,0.90
2017-07-25T13:15:35.692Z,0.90
2017-07-25T13:18:07.041Z,1.00
2017-07-25T13:20:39.649Z,0.80
2017-07-25T13:23:10.933Z,0.80
2017-07-25T13:25:42.765Z,0.90
2017-07-25T13:28:14.241Z,0.80
2017-07-25T13:30:46.193Z,0.80
2017-07-25T13:33:20.514Z,0.67
2017-07-25T13:35:52.908Z,0.70
2017-07-25T13:38:27.514Z,0.80
2017-07-25T13:40:58.844Z,0.83
2017-07-25T13:43:30.128Z,0.93
2017-07-25T13:46:01.585Z,0.90
2017-07-25T13:48:32.951Z,0.80
2017-07-25T13:51:05.038Z,0.70
2017-07-25T13:53:37.535Z,0.77
2017-07-25T13:56:09.643Z,0.73
2017-07-25T13:58:41.232Z,0.80
2017-07-25T14:01:12.688Z,0.77
2017-07-25T14:03:44.269Z,0.87
2017-07-25T14:06:18.674Z,1.03
2017-07-25T14:08:50.032Z,0.90
2017-07-25T14:11:24.957Z,1.00
2017-07-25T14:13:57.703Z,1.00
2017-07-25T14:16:30.476Z,1.00
2017-07-25T14:19:02.042Z,1.10
2017-07-25T14:21:35.284Z,0.90
2017-07-25T14:24:06.670Z,1.10
2017-07-25T14:26:38.134Z,0.90
2017-07-25T14:29:21.020Z,1.10
2017-07-25T14:31:54.613Z,0.90
2017-07-25T14:34:31.314Z,1.30
2017-07-25T14:37:03.021Z,1.20
2017-07-25T14:39:34.399Z,1.57
2017-07-25T14:42:06.301Z,1.80
2017-07-25T14:44:38.507Z,1.63
2017-07-25T14:47:11.481Z,1.70
2017-07-25T14:49:42.813Z,1.30
2017-07-25T14:52:14.304Z,1.50
2017-07-25T14:54:45.926Z,1.60
2017-07-25T14:57:20.076Z,1.43
2017-07-25T14:59:51.740Z,1.70
2017-07-25T15:02:27.871Z,1.53
2017-07-25T15:05:00.582Z,1.37
2017-07-25T15:07:32.261Z,1.43
2017-07-25T15:10:03.893Z,1.47
2017-07-25T15:12:36.171Z,1.57
2017-07-25T15:15:08.578Z,1.67
2017-07-25T15:17:40.341Z,1.47
2017-07-25T15:20:12.091Z,1.40
2017-07-25T15:22:44.517Z,1.50
2017-07-25T15:25:16.362Z,1.70
2017-07-25T15:27:48.057Z,1.40
2017-07-25T15:30:21.810Z,1.73
2017-07-25T15:32:53.685Z,2.00
2017-07-25T15:35:26.980Z,2.23
2017-07-25T15:37:58.252Z,2.00
2017-07-25T15:40:33.072Z,2.10
2017-07-25T15:43:05.668Z,1.80
2017-07-25T15:45:37.208Z,1.90
2017-07-25T15:48:08.767Z,1.63
2017-07-25T15:50:40.163Z,1.40
2017-07-25T15:53:11.710Z,2.17
2017-07-25T15:55:44.220Z,2.17
2017-07-25T15:58:15.927Z,2.57
2017-07-25T16:00:47.490Z,2.70
2017-07-25T16:03:21.227Z,1.53
2017-07-25T16:05:54.780Z,2.93
2017-07-25T16:08:25.895Z,3.93
2017-07-25T16:10:58.119Z,4.20
2017-07-25T16:13:29.407Z,2.40
2017-07-25T16:16:00.795Z,2.80
2017-07-25T16:18:32.388Z,2.80
2017-07-25T16:21:04.142Z,1.90
2017-07-25T16:23:35.714Z,2.30
2017-07-25T16:26:07.098Z,3.40
2017-07-25T16:28:38.580Z,2.77
2017-07-25T16:31:10.882Z,2.70
2017-07-25T16:33:42.263Z,2.70
2017-07-25T16:36:13.485Z,2.87
2017-07-25T16:38:45.191Z,3.00
2017-07-25T16:41:17.156Z,4.20
2017-07-25T16:43:48.585Z,3.30
2017-07-25T16:46:24.418Z,3.47
2017-07-25T16:48:55.796Z,4.37
2017-07-25T16:51:27.336Z,4.60
2017-07-25T16:53:59.860Z,4.70
2017-07-25T16:56:31.095Z,2.73
2017-07-25T16:59:02.714Z,2.20
2017-07-25T17:01:34.846Z,2.77
2017-07-25T17:04:10.174Z,2.13
2017-07-25T17:06:41.617Z,2.10
2017-07-25T17:09:13.658Z,2.40
2017-07-25T17:11:45.499Z,3.10
2017-07-25T17:14:16.995Z,2.87
2017-07-25T17:16:48.491Z,2.33
2017-07-25T17:19:23.282Z,2.67
2017-07-25T17:21:55.070Z,1.93
2017-07-25T17:24:26.793Z,2.10
2017-07-25T17:27:00.925Z,2.10
2017-07-25T17:29:32.553Z,2.97
2017-07-25T17:32:04.524Z,1.53
2017-07-25T17:34:38.387Z,1.60
2017-07-25T17:37:10.595Z,1.10
2017-07-25T17:39:41.992Z,1.17
2017-07-25T17:42:13.703Z,1.60
2017-07-25T17:44:45.510Z,1.37
2017-07-25T17:47:17.213Z,1.80
2017-07-25T17:49:50.625Z,1.87
2017-07-25T17:52:22.200Z,1.63
2017-07-25T17:54:53.661Z,1.70
2017-07-25T17:57:27.181Z,1.33
2017-07-25T17:59:59.211Z,1.83
2017-07-25T18:02:33.632Z,1.67
2017-07-25T18:05:05.423Z,1.40
2017-07-25T18:07:37.177Z,2.00
2017-07-25T18:10:08.686Z,2.03
2017-07-25T18:12:40.629Z,1.80
2017-07-25T18:15:13.618Z,2.00
2017-07-25T18:17:45.118Z,2.37
2017-07-25T18:20:17.351Z,2.70
2017-07-25T18:22:50.740Z,2.20
2017-07-25T18:25:26.106Z,3.10
2017-07-25T18:27:58.374Z,2.53
2017-07-25T18:30:30.011Z,2.27
2017-07-25T18:33:01.686Z,2.60
2017-07-25T18:35:34.274Z,2.03
2017-07-25T18:38:06.303Z,3.20
2017-07-25T18:40:39.222Z,2.80
2017-07-25T18:43:11.764Z,2.17
2017-07-25T18:45:43.271Z,2.27
2017-07-25T18:48:20.724Z,2.60
2017-07-25T18:50:56.401Z,2.20
2017-07-25T18:53:28.644Z,2.40
2017-07-25T18:56:00.898Z,2.40
2017-07-25T18:58:32.776Z,2.50
2017-07-25T19:01:04.643Z,3.10
2017-07-25T19:03:36.635Z,3.00
2017-07-25T19:06:08.497Z,2.30
2017-07-25T19:08:46.779Z,2.97
2017-07-25T19:11:21.424Z,3.00
2017-07-25T19:13:55.439Z,2.57
2017-07-25T19:16:27.313Z,2.57
2017-07-25T19:19:00.246Z,2.50
2017-07-25T19:21:53.943Z,2.33
2017-07-25T19:24:26.504Z,4.60
2017-07-25T19:26:58.589Z,2.60
2017-07-25T19:29:29.946Z,2.83
2017-07-25T19:32:01.883Z,3.17
2017-07-25T19:34:36.613Z,3.13
2017-07-25T19:37:08.382Z,2.50
2017-07-25T19:39:40.366Z,3.30
2017-07-25T19:42:11.662Z,2.93
2017-07-25T19:44:43.431Z,2.43
2017-07-25T19:47:14.762Z,3.03
2017-07-25T19:49:49.214Z,2.50
2017-07-25T19:52:24.523Z,3.37
2017-07-25T19:54:55.983Z,2.67
2017-07-25T19:57:28.373Z,3.40
2017-07-25T20:00:00.047Z,2.97
2017-07-25T20:02:32.423Z,3.30
